createdAt,value
2023-03-27T00:00:08.032Z,0.74
2023-03-27T00:01:08.036Z,1.00
2023-03-27T00:02:08.064Z,0.67
2023-03-27T00:03:08.105Z,0.41
2023-03-27T00:04:08.088Z,0.50
2023-03-27T00:05:08.084Z,0.77
2023-03-27T00:06:08.053Z,0.43
2023-03-27T00:07:08.046Z,0.62
2023-03-27T00:08:08.049Z,0.25
2023-03-27T00:09:08.051Z,0.74
2023-03-27T00:10:08.033Z,1.18
2023-03-27T00:11:08.125Z,1.13
2023-03-27T00:12:08.047Z,0.56
2023-03-27T00:13:08.046Z,0.64
2023-03-27T00:14:08.038Z,1.32
2023-03-27T00:15:08.059Z,0.85
2023-03-27T00:16:08.086Z,0.99
2023-03-27T00:17:08.033Z,0.88
2023-03-27T00:18:08.074Z,1.07
2023-03-27T00:19:08.071Z,1.20
2023-03-27T00:20:08.060Z,0.74
2023-03-27T00:21:08.091Z,1.04
2023-03-27T00:22:08.055Z,0.39
2023-03-27T00:23:08.086Z,0.32
2023-03-27T00:24:08.045Z,0.67
2023-03-27T00:25:08.054Z,0.55
2023-03-27T00:26:08.062Z,0.03
2023-03-27T00:27:08.071Z,0.86
2023-03-27T00:28:08.054Z,0.73
2023-03-27T00:29:08.227Z,0.53
2023-03-27T00:30:08.048Z,0.56
2023-03-27T00:31:08.091Z,0.75
2023-03-27T00:32:08.059Z,0.55
2023-03-27T00:33:08.066Z,0.79
2023-03-27T00:34:08.051Z,0.42
2023-03-27T00:35:08.060Z,0.42
2023-03-27T00:36:08.063Z,0.14
2023-03-27T00:37:08.068Z,0.05
2023-03-27T00:38:08.062Z,1.03
2023-03-27T00:39:08.060Z,0.93
2023-03-27T00:40:08.060Z,0.32
2023-03-27T00:41:08.173Z,0.18
2023-03-27T00:42:08.071Z,0.44
2023-03-27T00:43:08.096Z,0.20
2023-03-27T00:44:08.060Z,0.83
2023-03-27T00:45:08.073Z,0.12
2023-03-27T00:46:08.199Z,0.05
2023-03-27T00:47:08.096Z,0.46
2023-03-27T00:48:08.077Z,0.27
2023-03-27T00:49:08.077Z,0.34
2023-03-27T00:50:08.103Z,0.00
2023-03-27T00:51:08.072Z,0.27
2023-03-27T00:52:08.103Z,0.09
2023-03-27T00:53:08.094Z,0.39
2023-03-27T00:54:08.078Z,0.06
2023-03-27T00:55:08.083Z,0.21
2023-03-27T00:56:08.078Z,0.01
2023-03-27T00:57:08.256Z,0.19
2023-03-27T00:58:08.147Z,0.12
2023-03-27T00:59:08.191Z,0.40
2023-03-27T01:00:09.489Z,0.01
2023-03-27T01:01:08.213Z,0.08
2023-03-27T01:02:08.199Z,0.32
2023-03-27T01:03:08.303Z,0.39
2023-03-27T01:04:08.181Z,0.06
2023-03-27T01:05:08.221Z,0.04
2023-03-27T01:06:08.228Z,0.00
2023-03-27T01:07:08.240Z,0.00
2023-03-27T01:08:08.226Z,0.01
2023-03-27T01:09:08.281Z,0.11
2023-03-27T01:10:08.263Z,0.01
2023-03-27T01:11:08.268Z,0.29
2023-03-27T01:12:08.315Z,0.52
2023-03-27T01:13:08.375Z,0.47
2023-03-27T01:14:08.379Z,0.13
2023-03-27T01:15:08.359Z,0.95
2023-03-27T01:16:31.158Z,0.51
2023-03-27T01:17:31.190Z,0.81
2023-03-27T01:18:31.197Z,0.22
2023-03-27T01:19:31.233Z,0.16
2023-03-27T01:20:31.195Z,0.32
2023-03-27T01:21:31.168Z,0.51
2023-03-27T01:22:31.173Z,0.59
2023-03-27T01:23:35.496Z,0.58
2023-03-27T01:24:31.185Z,0.35
2023-03-27T01:25:31.210Z,0.19
2023-03-27T01:26:36.726Z,0.01
2023-03-27T01:27:31.192Z,0.14
2023-03-27T01:28:31.177Z,0.00
2023-03-27T01:29:31.164Z,0.45
2023-03-27T01:30:31.210Z,0.82
2023-03-27T01:31:31.199Z,0.01
2023-03-27T01:32:31.223Z,0.00
2023-03-27T01:33:31.195Z,0.00
2023-03-27T01:34:31.184Z,0.05
2023-03-27T01:35:31.253Z,0.00
2023-03-27T01:36:31.236Z,0.01
2023-03-27T01:37:31.205Z,0.00
2023-03-27T01:38:31.200Z,0.00
2023-03-27T01:39:31.195Z,0.15
2023-03-27T01:40:31.222Z,0.01
2023-03-27T01:41:31.195Z,0.00
2023-03-27T01:42:31.241Z,0.00
2023-03-27T01:43:31.210Z,0.07
2023-03-27T01:44:43.311Z,0.05
2023-03-27T01:45:31.176Z,0.00
2023-03-27T01:46:31.251Z,0.00
2023-03-27T01:47:31.238Z,0.00
2023-03-27T01:48:31.228Z,0.01
2023-03-27T01:49:31.211Z,0.00
2023-03-27T01:50:31.204Z,0.02
2023-03-27T01:51:31.207Z,0.00
2023-03-27T01:52:31.191Z,0.01
2023-03-27T01:53:31.232Z,0.01
2023-03-27T01:54:31.197Z,0.45
2023-03-27T01:55:31.343Z,0.09
2023-03-27T01:56:31.410Z,0.10
2023-03-27T01:57:31.455Z,0.12
2023-03-27T01:58:31.486Z,0.00
2023-03-27T01:59:31.465Z,0.00
2023-03-27T02:01:03.864Z,0.00
2023-03-27T02:01:31.508Z,0.00
2023-03-27T02:02:31.526Z,0.00
2023-03-27T02:03:31.484Z,0.00
2023-03-27T02:04:31.510Z,0.00
2023-03-27T02:05:31.473Z,0.01
2023-03-27T02:06:31.501Z,0.00
2023-03-27T02:07:31.490Z,0.00
2023-03-27T02:08:31.514Z,0.01
2023-03-27T02:09:31.511Z,0.00
2023-03-27T02:10:31.533Z,0.00
2023-03-27T02:11:31.539Z,0.00
2023-03-27T02:12:31.553Z,0.00
2023-03-27T02:13:31.585Z,0.00
2023-03-27T02:14:31.571Z,0.00
2023-03-27T02:15:31.584Z,0.00
2023-03-27T02:16:31.616Z,0.03
2023-03-27T02:17:31.610Z,0.00
2023-03-27T02:18:31.624Z,0.00
2023-03-27T02:19:31.635Z,0.29
2023-03-27T02:20:31.646Z,0.39
2023-03-27T02:21:31.647Z,0.20
2023-03-27T02:22:37.991Z,0.13
2023-03-27T02:23:31.693Z,0.00
2023-03-27T02:24:31.721Z,0.00
2023-03-27T02:25:31.652Z,0.00
2023-03-27T02:26:31.681Z,0.00
2023-03-27T02:27:31.645Z,0.00
2023-03-27T02:28:31.658Z,0.00
2023-03-27T02:29:31.665Z,0.00
2023-03-27T02:30:31.695Z,0.00
2023-03-27T02:31:34.649Z,0.00
2023-03-27T02:32:31.777Z,0.00
2023-03-27T02:33:31.653Z,0.00
2023-03-27T02:34:31.738Z,0.14
2023-03-27T02:35:31.673Z,0.01
2023-03-27T02:36:31.642Z,0.00
2023-03-27T02:37:32.636Z,0.01
2023-03-27T02:38:31.696Z,0.01
2023-03-27T02:39:31.663Z,0.11
2023-03-27T02:40:31.663Z,0.12
2023-03-27T02:41:31.684Z,0.00
2023-03-27T02:42:31.682Z,0.42
2023-03-27T02:43:31.672Z,0.00
2023-03-27T02:44:31.673Z,0.27
2023-03-27T02:45:31.774Z,0.15
2023-03-27T02:46:31.695Z,0.14
2023-03-27T02:47:31.682Z,0.00
2023-03-27T02:48:31.720Z,0.00
2023-03-27T02:49:31.728Z,0.19
2023-03-27T02:50:31.702Z,0.11
2023-03-27T02:51:31.670Z,0.00
2023-03-27T02:52:31.690Z,0.00
2023-03-27T02:53:31.704Z,0.00
2023-03-27T02:54:31.714Z,0.00
2023-03-27T02:55:31.711Z,0.00
2023-03-27T02:56:31.683Z,0.01
2023-03-27T02:57:31.707Z,0.01
2023-03-27T02:58:31.708Z,0.03
2023-03-27T02:59:31.682Z,0.17
2023-03-27T03:00:31.684Z,0.04
2023-03-27T03:01:31.762Z,0.00
2023-03-27T03:02:31.776Z,0.01
2023-03-27T03:03:31.744Z,0.01
2023-03-27T03:04:31.753Z,0.00
2023-03-27T03:05:31.754Z,0.01
2023-03-27T03:06:31.797Z,0.00
2023-03-27T03:07:31.756Z,0.02
2023-03-27T03:08:31.835Z,0.00
2023-03-27T03:09:31.785Z,0.02
2023-03-27T03:10:31.783Z,0.01
2023-03-27T03:11:31.785Z,0.03
2023-03-27T03:12:31.826Z,0.00
2023-03-27T03:13:31.846Z,0.01
2023-03-27T03:14:31.875Z,0.20
2023-03-27T03:15:31.842Z,0.03
2023-03-27T03:16:31.866Z,0.00
2023-03-27T03:17:31.925Z,0.00
2023-03-27T03:18:31.918Z,0.24
2023-03-27T03:19:31.927Z,0.30
2023-03-27T03:20:31.920Z,0.00
2023-03-27T03:21:31.960Z,0.43
2023-03-27T03:22:31.937Z,0.25
2023-03-27T03:23:31.990Z,0.00
2023-03-27T03:24:31.937Z,0.13
2023-03-27T03:25:31.928Z,0.09
2023-03-27T03:26:31.945Z,0.21
2023-03-27T03:27:32.014Z,0.00
2023-03-27T03:28:32.009Z,0.00
2023-03-27T03:29:32.064Z,0.00
2023-03-27T03:30:32.081Z,0.00
2023-03-27T03:31:32.019Z,0.07
2023-03-27T03:32:32.107Z,0.01
2023-03-27T03:33:32.100Z,0.51
2023-03-27T03:34:32.088Z,0.43
2023-03-27T03:35:32.111Z,0.14
2023-03-27T03:36:32.099Z,0.03
2023-03-27T03:37:32.099Z,0.00
2023-03-27T03:38:37.796Z,0.31
2023-03-27T03:39:32.166Z,0.19
2023-03-27T03:40:32.148Z,0.00
2023-03-27T03:41:32.137Z,0.01
2023-03-27T03:42:32.132Z,0.00
2023-03-27T03:43:32.147Z,0.02
2023-03-27T03:44:32.158Z,0.06
2023-03-27T03:45:32.156Z,0.00
2023-03-27T03:46:32.260Z,0.00
2023-03-27T03:47:32.162Z,0.11
2023-03-27T03:48:32.164Z,0.15
2023-03-27T03:49:32.179Z,0.01
2023-03-27T03:50:32.183Z,0.00
2023-03-27T03:51:32.177Z,0.00
2023-03-27T03:52:32.182Z,0.00
2023-03-27T03:53:32.156Z,0.00
2023-03-27T03:54:32.171Z,0.00
2023-03-27T03:55:32.187Z,0.00
2023-03-27T03:56:32.276Z,0.01
2023-03-27T03:57:32.137Z,0.24
2023-03-27T03:58:34.573Z,0.64
2023-03-27T03:59:32.176Z,0.01
2023-03-27T04:00:32.176Z,0.01
2023-03-27T04:01:32.192Z,0.14
2023-03-27T04:02:32.199Z,0.19
2023-03-27T04:03:32.326Z,0.01
2023-03-27T04:04:32.186Z,0.28
2023-03-27T04:05:32.159Z,0.00
2023-03-27T04:06:32.178Z,0.15
2023-03-27T04:07:32.194Z,0.07
2023-03-27T04:08:32.162Z,0.01
2023-03-27T04:09:32.145Z,0.08
2023-03-27T04:10:32.162Z,0.01
2023-03-27T04:11:32.202Z,0.00
2023-03-27T04:12:32.173Z,0.00
2023-03-27T04:13:32.160Z,0.00
2023-03-27T04:14:32.155Z,0.00
2023-03-27T04:15:32.173Z,0.00
2023-03-27T04:16:32.249Z,0.00
2023-03-27T04:17:32.336Z,0.00
2023-03-27T04:18:32.218Z,0.00
2023-03-27T04:19:32.181Z,0.00
2023-03-27T04:20:32.168Z,0.00
2023-03-27T04:21:32.192Z,0.00
2023-03-27T04:22:32.181Z,0.00
2023-03-27T04:23:32.184Z,0.00
2023-03-27T04:24:32.181Z,0.00
2023-03-27T04:25:32.172Z,0.00
2023-03-27T04:26:32.186Z,0.00
2023-03-27T04:27:32.173Z,0.00
2023-03-27T04:28:32.191Z,0.00
2023-03-27T04:29:32.183Z,0.01
2023-03-27T04:30:32.195Z,0.00
2023-03-27T04:31:32.229Z,0.00
2023-03-27T04:32:32.212Z,0.08
2023-03-27T04:33:32.186Z,0.00
2023-03-27T04:34:32.203Z,0.00
2023-03-27T04:35:32.209Z,0.22
2023-03-27T04:36:32.250Z,0.01
2023-03-27T04:37:32.214Z,0.22
2023-03-27T04:38:32.199Z,0.00
2023-03-27T04:39:32.199Z,0.00
2023-03-27T04:40:32.187Z,0.00
2023-03-27T04:41:32.230Z,0.00
2023-03-27T04:42:32.234Z,0.00
2023-03-27T04:43:32.209Z,0.14
2023-03-27T04:44:32.219Z,0.00
2023-03-27T04:45:32.181Z,0.00
2023-03-27T04:46:32.264Z,0.00
2023-03-27T04:47:32.231Z,0.00
2023-03-27T04:48:32.198Z,0.00
2023-03-27T04:49:32.204Z,0.00
2023-03-27T04:50:32.202Z,0.00
2023-03-27T04:51:32.208Z,0.00
2023-03-27T04:52:32.246Z,0.00
2023-03-27T04:53:32.230Z,0.00
2023-03-27T04:54:32.211Z,0.00
2023-03-27T04:55:32.191Z,0.00
2023-03-27T04:56:32.326Z,0.01
2023-03-27T04:57:32.210Z,0.00
2023-03-27T04:58:32.235Z,0.00
2023-03-27T04:59:32.272Z,0.00
2023-03-27T05:00:32.253Z,0.00
2023-03-27T05:01:32.342Z,0.00
2023-03-27T05:02:32.286Z,0.00
2023-03-27T05:03:32.339Z,0.00
2023-03-27T05:04:32.265Z,0.00
2023-03-27T05:05:32.245Z,0.00
2023-03-27T05:06:32.280Z,0.00
2023-03-27T05:07:32.271Z,0.00
2023-03-27T05:08:32.391Z,0.00
2023-03-27T05:09:32.359Z,0.00
2023-03-27T05:10:32.347Z,0.00
2023-03-27T05:11:32.358Z,0.00
2023-03-27T05:12:32.382Z,0.00
2023-03-27T05:13:32.426Z,0.00
2023-03-27T05:14:32.408Z,0.00
2023-03-27T05:15:32.405Z,0.00
2023-03-27T05:16:32.428Z,0.00
2023-03-27T05:17:32.428Z,0.00
2023-03-27T05:18:32.430Z,0.00
2023-03-27T05:19:32.436Z,0.00
2023-03-27T05:20:32.440Z,0.00
2023-03-27T05:21:32.436Z,0.00
2023-03-27T05:22:32.468Z,0.00
2023-03-27T05:23:32.484Z,0.01
2023-03-27T05:24:32.497Z,0.00
2023-03-27T05:25:32.499Z,0.00
2023-03-27T05:26:32.467Z,0.00
2023-03-27T05:27:32.513Z,0.00
2023-03-27T05:28:32.579Z,0.00
2023-03-27T05:29:46.817Z,0.00
2023-03-27T05:30:32.599Z,0.00
2023-03-27T05:31:32.570Z,0.00
2023-03-27T05:32:32.581Z,0.00
2023-03-27T05:33:32.582Z,0.00
2023-03-27T05:34:32.594Z,0.00
2023-03-27T05:35:32.633Z,0.00
2023-03-27T05:36:32.596Z,0.00
2023-03-27T05:37:32.602Z,0.00
2023-03-27T05:38:32.597Z,0.00
2023-03-27T05:39:32.610Z,0.12
2023-03-27T05:40:32.601Z,0.13
2023-03-27T05:41:32.585Z,0.00
2023-03-27T05:42:32.592Z,0.00
2023-03-27T05:43:32.586Z,0.00
2023-03-27T05:44:32.609Z,0.00
2023-03-27T05:45:32.588Z,0.00
2023-03-27T05:46:32.708Z,0.01
2023-03-27T05:47:32.673Z,0.00
2023-03-27T05:48:32.587Z,0.00
2023-03-27T05:49:34.194Z,0.32
2023-03-27T05:50:32.616Z,0.02
2023-03-27T05:51:32.612Z,0.38
2023-03-27T05:52:32.590Z,0.15
2023-03-27T05:53:32.593Z,0.02
2023-03-27T05:54:32.638Z,0.18
2023-03-27T05:55:32.640Z,0.02
2023-03-27T05:56:32.756Z,0.00
2023-03-27T05:57:32.598Z,0.23
2023-03-27T05:58:32.646Z,0.00
2023-03-27T05:59:32.609Z,0.00
2023-03-27T06:00:32.630Z,0.00
2023-03-27T06:01:32.620Z,0.00
2023-03-27T06:02:32.646Z,0.25
2023-03-27T06:03:32.757Z,0.01
2023-03-27T06:04:32.628Z,0.00
2023-03-27T06:05:32.655Z,0.00
2023-03-27T06:06:32.837Z,0.00
2023-03-27T06:07:32.605Z,0.07
2023-03-27T06:08:32.591Z,0.05
2023-03-27T06:09:32.621Z,0.00
2023-03-27T06:10:32.658Z,0.30
2023-03-27T06:11:32.635Z,0.01
2023-03-27T06:12:32.613Z,0.47
2023-03-27T06:13:32.623Z,0.01
2023-03-27T06:14:32.612Z,0.00
2023-03-27T06:15:32.693Z,0.00
2023-03-27T06:16:32.686Z,0.34
2023-03-27T06:17:32.657Z,0.01
2023-03-27T06:18:32.610Z,0.00
2023-03-27T06:19:32.632Z,0.07
2023-03-27T06:20:32.613Z,0.12
2023-03-27T06:21:32.645Z,0.02
2023-03-27T06:22:32.643Z,0.02
2023-03-27T06:23:32.615Z,0.02
2023-03-27T06:24:32.640Z,0.01
2023-03-27T06:25:32.645Z,0.00
2023-03-27T06:26:32.615Z,0.00
2023-03-27T06:27:32.628Z,0.01
2023-03-27T06:28:32.634Z,0.12
2023-03-27T06:29:32.644Z,0.36
2023-03-27T06:30:32.636Z,0.09
2023-03-27T06:31:32.689Z,0.33
2023-03-27T06:32:32.644Z,0.01
2023-03-27T06:33:32.662Z,0.00
2023-03-27T06:34:32.658Z,0.00
2023-03-27T06:35:32.731Z,0.03
2023-03-27T06:36:32.623Z,0.00
2023-03-27T06:37:32.664Z,0.00
2023-03-27T06:38:32.637Z,0.00
2023-03-27T06:39:32.636Z,0.00
2023-03-27T06:40:32.658Z,0.00
2023-03-27T06:41:32.684Z,0.00
2023-03-27T06:42:32.875Z,0.00
2023-03-27T06:43:32.632Z,0.00
2023-03-27T06:44:32.661Z,0.00
2023-03-27T06:45:32.641Z,0.01
2023-03-27T06:46:44.750Z,0.56
2023-03-27T06:47:34.577Z,0.25
2023-03-27T06:48:32.669Z,0.15
2023-03-27T06:49:32.656Z,0.04
2023-03-27T06:50:32.664Z,0.03
2023-03-27T06:51:32.704Z,0.00
2023-03-27T06:52:32.686Z,0.01
2023-03-27T06:53:36.526Z,0.26
2023-03-27T06:54:32.665Z,0.00
2023-03-27T06:55:32.674Z,0.04
2023-03-27T06:56:32.751Z,0.10
2023-03-27T06:57:32.666Z,0.52
2023-03-27T06:58:32.675Z,0.82
2023-03-27T06:59:32.680Z,0.15
2023-03-27T07:00:32.667Z,0.41
2023-03-27T07:01:32.722Z,0.36
2023-03-27T07:02:32.703Z,0.06
2023-03-27T07:03:32.680Z,0.61
2023-03-27T07:04:32.677Z,0.22
2023-03-27T07:05:32.684Z,0.17
2023-03-27T07:06:32.699Z,0.02
2023-03-27T07:07:32.674Z,0.56
2023-03-27T07:08:32.662Z,0.02
2023-03-27T07:09:32.693Z,0.88
2023-03-27T07:10:32.654Z,0.29
2023-03-27T07:11:32.689Z,0.00
2023-03-27T07:12:32.676Z,0.12
2023-03-27T07:13:32.691Z,0.42
2023-03-27T07:14:32.715Z,0.16
2023-03-27T07:15:32.670Z,0.00
2023-03-27T07:16:55.512Z,0.51
2023-03-27T07:17:55.527Z,0.01
2023-03-27T07:18:55.500Z,0.02
2023-03-27T07:19:55.505Z,0.24
2023-03-27T07:20:55.742Z,0.42
2023-03-27T07:21:55.580Z,0.64
2023-03-27T07:22:56.512Z,0.92
2023-03-27T07:23:55.554Z,0.44
2023-03-27T07:24:55.497Z,0.83
2023-03-27T07:25:55.813Z,0.16
2023-03-27T07:26:55.532Z,0.29
2023-03-27T07:27:55.541Z,0.13
2023-03-27T07:28:55.565Z,0.44
2023-03-27T07:29:55.558Z,0.68
2023-03-27T07:30:55.739Z,0.01
2023-03-27T07:31:58.498Z,0.37
2023-03-27T07:32:55.538Z,0.59
2023-03-27T07:33:55.552Z,1.21
2023-03-27T07:34:55.516Z,0.35
2023-03-27T07:35:55.692Z,0.13
2023-03-27T07:36:55.502Z,0.47
2023-03-27T07:37:55.511Z,0.00
2023-03-27T07:38:55.567Z,0.00
2023-03-27T07:39:55.515Z,0.04
2023-03-27T07:40:55.505Z,0.02
2023-03-27T07:41:55.511Z,0.54
2023-03-27T07:42:55.571Z,0.34
2023-03-27T07:43:55.553Z,0.99
2023-03-27T07:44:55.520Z,0.47
2023-03-27T07:45:55.840Z,0.75
2023-03-27T07:46:55.535Z,0.34
2023-03-27T07:47:55.595Z,0.16
2023-03-27T07:48:55.541Z,0.62
2023-03-27T07:49:55.545Z,0.24
2023-03-27T07:50:58.224Z,0.90
2023-03-27T07:51:55.559Z,0.50
2023-03-27T07:52:55.733Z,0.33
2023-03-27T07:53:55.749Z,0.01
2023-03-27T07:54:55.781Z,0.01
2023-03-27T07:55:55.959Z,0.22
2023-03-27T07:56:55.863Z,0.46
2023-03-27T07:58:01.274Z,0.01
2023-03-27T07:58:55.805Z,0.30
2023-03-27T07:59:55.913Z,0.47
2023-03-27T08:00:55.820Z,0.70
2023-03-27T08:01:55.804Z,0.28
2023-03-27T08:02:55.899Z,0.11
2023-03-27T08:03:55.913Z,0.05
2023-03-27T08:04:55.953Z,0.00
2023-03-27T08:05:56.203Z,0.01
2023-03-27T08:06:55.859Z,0.73
2023-03-27T08:07:55.848Z,0.83
2023-03-27T08:08:55.906Z,0.43
2023-03-27T08:09:55.955Z,0.01
2023-03-27T08:10:55.911Z,0.38
2023-03-27T08:11:55.929Z,0.52
2023-03-27T08:12:55.887Z,0.22
2023-03-27T08:13:55.922Z,0.11
2023-03-27T08:14:56.084Z,0.90
2023-03-27T08:15:56.113Z,0.78
2023-03-27T08:17:05.137Z,0.26
2023-03-27T08:17:56.048Z,0.91
2023-03-27T08:18:55.990Z,0.48
2023-03-27T08:19:55.991Z,0.43
2023-03-27T08:20:55.935Z,0.02
2023-03-27T08:21:56.098Z,0.17
2023-03-27T08:22:55.966Z,0.84
2023-03-27T08:23:57.762Z,0.40
2023-03-27T08:24:55.969Z,0.25
2023-03-27T08:25:56.091Z,0.31
2023-03-27T08:26:55.940Z,1.14
2023-03-27T08:27:55.959Z,1.29
2023-03-27T08:28:56.007Z,0.99
2023-03-27T08:29:56.118Z,0.79
2023-03-27T08:30:56.021Z,0.48
2023-03-27T08:31:55.958Z,0.81
2023-03-27T08:32:56.034Z,0.44
2023-03-27T08:33:56.061Z,0.51
2023-03-27T08:34:55.958Z,0.71
2023-03-27T08:35:56.230Z,0.52
2023-03-27T08:36:55.952Z,1.17
2023-03-27T08:37:55.983Z,0.44
2023-03-27T08:38:55.974Z,0.41
2023-03-27T08:39:55.967Z,0.47
2023-03-27T08:40:56.021Z,0.67
2023-03-27T08:41:55.994Z,0.82
2023-03-27T08:42:56.098Z,0.82
2023-03-27T08:43:55.965Z,1.39
2023-03-27T08:44:55.977Z,1.27
2023-03-27T08:45:56.258Z,0.87
2023-03-27T08:46:56.058Z,0.24
2023-03-27T08:47:56.014Z,0.90
2023-03-27T08:48:55.983Z,0.29
2023-03-27T08:49:55.977Z,0.01
2023-03-27T08:50:56.076Z,0.11
2023-03-27T08:51:56.037Z,0.00
2023-03-27T08:52:56.108Z,0.74
2023-03-27T08:53:56.088Z,0.02
2023-03-27T08:54:56.104Z,0.40
2023-03-27T08:55:56.262Z,0.89
2023-03-27T08:56:56.161Z,1.18
2023-03-27T08:57:56.181Z,0.83
2023-03-27T08:58:56.098Z,0.71
2023-03-27T08:59:56.084Z,0.71
2023-03-27T09:00:56.126Z,0.86
2023-03-27T09:01:57.948Z,1.07
2023-03-27T09:02:56.344Z,0.93
2023-03-27T09:03:56.373Z,0.03
2023-03-27T09:04:56.222Z,0.00
2023-03-27T09:05:56.440Z,0.95
2023-03-27T09:06:56.234Z,0.75
2023-03-27T09:07:56.338Z,0.97
2023-03-27T09:08:56.245Z,0.48
2023-03-27T09:09:56.276Z,0.98
2023-03-27T09:10:56.280Z,0.98
2023-03-27T09:11:56.240Z,0.70
2023-03-27T09:12:56.284Z,0.88
2023-03-27T09:13:56.330Z,0.84
2023-03-27T09:14:56.347Z,1.10
2023-03-27T09:15:56.604Z,0.87
2023-03-27T09:16:56.355Z,0.68
2023-03-27T09:17:56.374Z,0.45
2023-03-27T09:18:56.441Z,0.69
2023-03-27T09:19:56.350Z,0.39
2023-03-27T09:20:56.376Z,0.85
2023-03-27T09:21:56.489Z,0.39
2023-03-27T09:22:56.386Z,0.62
2023-03-27T09:23:56.368Z,0.08
2023-03-27T09:24:56.476Z,0.87
2023-03-27T09:25:56.706Z,0.86
2023-03-27T09:27:06.850Z,0.99
2023-03-27T09:27:56.505Z,0.38
2023-03-27T09:28:56.476Z,0.55
2023-03-27T09:30:04.827Z,0.04
2023-03-27T09:30:56.516Z,0.38
2023-03-27T09:31:56.511Z,0.50
2023-03-27T09:32:56.541Z,0.63
2023-03-27T09:33:56.473Z,0.75
2023-03-27T09:34:56.474Z,0.68
2023-03-27T09:35:56.685Z,0.54
2023-03-27T09:36:56.500Z,0.12
2023-03-27T09:37:56.503Z,0.51
2023-03-27T09:38:56.514Z,0.32
2023-03-27T09:39:56.537Z,0.67
2023-03-27T09:40:56.503Z,0.79
2023-03-27T09:41:56.497Z,0.93
2023-03-27T09:42:56.518Z,0.87
2023-03-27T09:43:56.448Z,0.80
2023-03-27T09:44:56.453Z,0.02
2023-03-27T09:45:56.700Z,0.78
2023-03-27T09:46:56.550Z,1.26
2023-03-27T09:47:56.621Z,0.92
2023-03-27T09:48:56.479Z,0.73
2023-03-27T09:49:56.643Z,0.21
2023-03-27T09:50:56.759Z,0.64
2023-03-27T09:51:56.511Z,0.51
2023-03-27T09:52:56.530Z,0.50
2023-03-27T09:53:56.470Z,0.57
2023-03-27T09:54:56.530Z,0.86
2023-03-27T09:55:56.523Z,1.33
2023-03-27T09:56:56.547Z,1.09
2023-03-27T09:57:56.506Z,0.77
2023-03-27T09:58:56.537Z,0.80
2023-03-27T09:59:56.545Z,0.23
2023-03-27T10:00:56.668Z,0.91
2023-03-27T10:01:56.515Z,0.54
2023-03-27T10:02:56.531Z,0.44
2023-03-27T10:03:56.545Z,0.73
2023-03-27T10:04:56.523Z,0.78
2023-03-27T10:05:56.536Z,0.51
2023-03-27T10:06:56.504Z,1.04
2023-03-27T10:07:56.528Z,0.29
2023-03-27T10:08:56.531Z,0.27
2023-03-27T10:09:56.558Z,0.66
2023-03-27T10:10:56.743Z,0.42
2023-03-27T10:11:56.519Z,0.85
2023-03-27T10:12:56.522Z,0.49
2023-03-27T10:13:56.557Z,0.83
2023-03-27T10:14:56.549Z,0.17
2023-03-27T10:15:56.556Z,0.54
2023-03-27T10:16:56.512Z,0.81
2023-03-27T10:17:56.673Z,1.41
2023-03-27T10:18:56.496Z,0.26
2023-03-27T10:19:56.495Z,0.78
2023-03-27T10:20:56.702Z,0.79
2023-03-27T10:21:56.575Z,0.97
2023-03-27T10:22:56.520Z,0.65
2023-03-27T10:23:56.519Z,0.90
2023-03-27T10:24:56.515Z,0.15
2023-03-27T10:25:56.552Z,0.38
2023-03-27T10:26:56.534Z,0.61
2023-03-27T10:27:56.549Z,0.79
2023-03-27T10:28:56.657Z,0.90
2023-03-27T10:29:56.607Z,0.61
2023-03-27T10:30:56.786Z,0.99
2023-03-27T10:31:56.728Z,0.05
2023-03-27T10:32:56.600Z,0.07
2023-03-27T10:33:56.667Z,0.51
2023-03-27T10:34:56.651Z,0.86
2023-03-27T10:35:56.735Z,0.83
2023-03-27T10:36:56.724Z,0.95
2023-03-27T10:37:56.709Z,1.17
2023-03-27T10:38:56.685Z,1.00
2023-03-27T10:39:56.713Z,1.08
2023-03-27T10:40:56.803Z,0.51
2023-03-27T10:41:56.758Z,0.65
2023-03-27T10:42:56.712Z,0.99
2023-03-27T10:43:56.765Z,0.99
2023-03-27T10:44:56.734Z,0.76
2023-03-27T10:45:56.785Z,0.71
2023-03-27T10:46:56.771Z,1.19
2023-03-27T10:47:56.764Z,1.30
2023-03-27T10:48:56.931Z,0.58
2023-03-27T10:49:56.863Z,0.94
2023-03-27T10:50:57.064Z,1.09
2023-03-27T10:51:56.857Z,0.64
2023-03-27T10:52:56.887Z,1.08
2023-03-27T10:53:56.986Z,0.87
2023-03-27T10:54:56.938Z,0.93
2023-03-27T10:55:56.908Z,0.83
2023-03-27T10:56:56.960Z,1.12
2023-03-27T10:57:56.942Z,0.94
2023-03-27T10:58:56.884Z,0.26
2023-03-27T10:59:57.120Z,0.70
2023-03-27T11:00:57.076Z,0.84
2023-03-27T11:01:56.956Z,1.48
2023-03-27T11:02:56.975Z,1.18
2023-03-27T11:03:58.001Z,1.49
2023-03-27T11:04:56.926Z,1.23
2023-03-27T11:05:56.948Z,1.15
2023-03-27T11:06:56.946Z,0.39
2023-03-27T11:07:57.051Z,0.77
2023-03-27T11:08:57.058Z,0.99
2023-03-27T11:09:57.083Z,1.12
2023-03-27T11:10:57.258Z,1.34
2023-03-27T11:11:57.083Z,1.23
2023-03-27T11:12:57.157Z,0.91
2023-03-27T11:13:57.133Z,0.85
2023-03-27T11:14:57.171Z,0.03
2023-03-27T11:15:57.165Z,0.12
2023-03-27T11:16:57.434Z,0.15
2023-03-27T11:17:57.216Z,0.52
2023-03-27T11:18:57.202Z,0.01
2023-03-27T11:19:57.201Z,0.05
2023-03-27T11:20:57.418Z,0.01
2023-03-27T11:21:57.301Z,0.02
2023-03-27T11:22:57.219Z,0.00
2023-03-27T11:23:57.313Z,0.02
2023-03-27T11:24:57.287Z,0.00
2023-03-27T11:25:57.250Z,0.44
2023-03-27T11:26:57.285Z,0.49
2023-03-27T11:27:57.300Z,0.19
2023-03-27T11:28:57.301Z,0.72
2023-03-27T11:29:57.299Z,0.62
2023-03-27T11:30:57.501Z,1.05
2023-03-27T11:31:57.404Z,0.42
2023-03-27T11:32:57.370Z,0.01
2023-03-27T11:33:57.380Z,0.00
2023-03-27T11:34:57.359Z,0.44
2023-03-27T11:35:57.437Z,0.05
2023-03-27T11:36:57.392Z,0.42
2023-03-27T11:37:57.390Z,0.63
2023-03-27T11:38:57.380Z,0.28
2023-03-27T11:39:57.472Z,0.31
2023-03-27T11:40:57.505Z,0.54
2023-03-27T11:41:57.472Z,0.24
2023-03-27T11:42:57.515Z,1.22
2023-03-27T11:43:57.495Z,0.34
2023-03-27T11:44:57.487Z,0.46
2023-03-27T11:45:57.565Z,1.14
2023-03-27T11:46:57.474Z,0.83
2023-03-27T11:47:57.773Z,0.49
2023-03-27T11:48:57.556Z,0.59
2023-03-27T11:49:57.568Z,0.90
2023-03-27T11:50:57.677Z,0.35
2023-03-27T11:51:57.680Z,0.45
2023-03-27T11:52:57.585Z,0.55
2023-03-27T11:53:57.577Z,0.64
2023-03-27T11:54:57.690Z,0.59
2023-03-27T11:55:57.585Z,0.48
2023-03-27T11:56:57.639Z,0.46
2023-03-27T11:57:57.651Z,0.89
2023-03-27T11:58:57.651Z,0.40
2023-03-27T11:59:57.676Z,0.01
2023-03-27T12:00:57.936Z,0.01
2023-03-27T12:01:57.679Z,0.00
2023-03-27T12:02:57.762Z,0.17
2023-03-27T12:03:57.834Z,0.56
2023-03-27T12:04:57.790Z,0.17
2023-03-27T12:05:57.751Z,0.01
2023-03-27T12:07:03.944Z,0.00
2023-03-27T12:07:57.793Z,0.00
2023-03-27T12:08:57.772Z,0.01
2023-03-27T12:09:57.794Z,0.11
2023-03-27T12:10:57.986Z,0.04
2023-03-27T12:11:57.795Z,0.14
2023-03-27T12:12:57.827Z,1.31
2023-03-27T12:14:01.596Z,0.24
2023-03-27T12:14:57.792Z,0.27
2023-03-27T12:15:57.790Z,0.16
2023-03-27T12:16:57.874Z,0.71
2023-03-27T12:17:57.826Z,0.44
2023-03-27T12:19:03.918Z,0.62
2023-03-27T12:19:57.805Z,0.00
2023-03-27T12:20:57.806Z,0.01
2023-03-27T12:21:57.776Z,0.23
2023-03-27T12:22:57.772Z,0.35
2023-03-27T12:23:57.814Z,0.01
2023-03-27T12:24:59.959Z,0.20
2023-03-27T12:25:57.873Z,0.76
2023-03-27T12:26:57.893Z,0.39
2023-03-27T12:27:57.980Z,0.31
2023-03-27T12:28:57.964Z,0.53
2023-03-27T12:29:57.971Z,0.69
2023-03-27T12:30:58.122Z,0.01
2023-03-27T12:31:58.014Z,0.49
2023-03-27T12:33:00.041Z,0.93
2023-03-27T12:33:58.006Z,0.38
2023-03-27T12:34:58.014Z,0.18
2023-03-27T12:35:58.059Z,0.53
2023-03-27T12:36:58.028Z,0.48
2023-03-27T12:37:58.018Z,0.01
2023-03-27T12:38:58.064Z,0.00
2023-03-27T12:39:58.042Z,0.00
2023-03-27T12:40:58.169Z,0.64
2023-03-27T12:41:58.114Z,1.14
2023-03-27T12:42:58.125Z,0.48
2023-03-27T12:44:00.137Z,0.52
2023-03-27T12:44:59.939Z,0.46
2023-03-27T12:45:58.155Z,0.32
2023-03-27T12:46:58.155Z,1.55
2023-03-27T12:47:58.284Z,0.78
2023-03-27T12:48:58.246Z,1.80
2023-03-27T12:49:58.217Z,0.99
2023-03-27T12:50:58.418Z,0.90
2023-03-27T12:51:58.252Z,0.89
2023-03-27T12:52:58.268Z,1.63
2023-03-27T12:53:58.287Z,1.58
2023-03-27T12:54:58.289Z,1.10
2023-03-27T12:55:58.425Z,0.11
2023-03-27T12:56:58.422Z,1.20
2023-03-27T12:57:58.420Z,1.66
2023-03-27T12:58:58.303Z,1.96
2023-03-27T12:59:58.321Z,1.75
2023-03-27T13:00:58.572Z,1.17
2023-03-27T13:01:58.404Z,1.69
2023-03-27T13:02:58.466Z,1.56
2023-03-27T13:03:58.458Z,1.08
2023-03-27T13:04:58.364Z,1.16
2023-03-27T13:05:58.383Z,0.96
2023-03-27T13:06:58.352Z,1.03
2023-03-27T13:07:58.398Z,1.11
2023-03-27T13:08:58.366Z,1.19
2023-03-27T13:09:58.451Z,0.61
2023-03-27T13:10:58.592Z,1.06
2023-03-27T13:11:58.472Z,0.20
2023-03-27T13:12:58.492Z,0.91
2023-03-27T13:13:58.472Z,0.44
2023-03-27T13:14:58.461Z,0.54
2023-03-27T13:15:58.834Z,0.00
2023-03-27T13:17:18.047Z,0.22
2023-03-27T13:18:18.033Z,0.99
2023-03-27T13:19:18.073Z,0.16